• Join FlightAware (Why Join?)
  • Login
  • US Flag 
10:10AM EDT


 

Airport Tracker/Info


-or-


 

Live Flight TrackerFlight Track Log ✈ THY1614 ✈ 03-Jul-2013 ✈ EDDF / FRA - LTAF / ADA

Flight Track Log - Related Links

Times and Time Zones

All times are in EDT time to prevent confusion due to time zone crossing. See the THY1614 flight status page for this flight to view local times or setup timezone preferences in your user account.

Time Position Orientation Groundspeed Altitude Reporting Facility
EDT Latitude Longitude Course Direction KTS MPH feet Rate Location/Type
05:00PM 49.3968 10.6469 114° Southeast  Level Estimated
05:01PM 49.3468 10.8064 116° Southeast  Level Estimated
05:02PM 49.2966 10.9657 116° Southeast  Level Estimated
05:03PM 49.2461 11.1246 116° Southeast  Level Estimated
05:04PM 49.1955 11.2832 116° Southeast  Level Estimated
05:05PM 49.1446 11.4414 116° Southeast  Level Estimated
05:06PM 49.0935 11.5994 116° Southeast  Level Estimated
05:07PM 49.0422 11.7570 116° Southeast  Level Estimated
05:08PM 48.9907 11.9143 116° Southeast  Level Estimated
05:09PM 48.9390 12.0712 117° Southeast  Level Estimated
05:10PM 48.8871 12.2278 117° Southeast  Level Estimated
05:11PM 48.8349 12.3842 117° Southeast  Level Estimated
05:12PM 48.7826 12.5401 117° Southeast  Level Estimated
05:13PM 48.7300 12.6958 117° Southeast  Level Estimated
05:14PM 48.6772 12.8511 117° Southeast  Level Estimated
05:15PM 48.6242 13.0061 117° Southeast  Level Estimated
05:16PM 48.5710 13.1608 117° Southeast  Level Estimated
05:17PM 48.5176 13.3152 118° Southeast  Level Estimated
05:18PM 48.4640 13.4692 118° Southeast  Level Estimated
05:19PM 48.4102 13.6229 118° Southeast  Level Estimated
05:20PM 48.3562 13.7763 118° Southeast  Level Estimated
05:21PM 48.3019 13.9293 118° Southeast  Level Estimated
05:22PM 48.2475 14.0821 118° Southeast  Level Estimated
05:23PM 48.1929 14.2345 118° Southeast  Level Estimated
05:24PM 48.1381 14.3865 118° Southeast  Level Estimated
05:25PM 48.0830 14.5383 118° Southeast  Level Estimated
05:26PM 48.0278 14.6897 119° Southeast  Level Estimated
05:27PM 47.9724 14.8408 119° Southeast  Level Estimated
05:28PM 47.9168 14.9916 119° Southeast  Level Estimated
05:29PM 47.8609 15.1420 119° Southeast  Level Estimated
05:30PM 47.8049 15.2922 119° Southeast  Level Estimated
05:31PM 47.7487 15.4420 119° Southeast  Level Estimated
05:32PM 47.6923 15.5915 119° Southeast  Level Estimated
05:33PM 47.6357 15.7406 119° Southeast  Level Estimated
05:34PM 47.5789 15.8895 119° Southeast  Level Estimated
05:35PM 47.5219 16.0380 120° Southeast  Level Estimated
05:36PM 47.4647 16.1861 120° Southeast  Level Estimated
05:37PM 47.4074 16.3340 120° Southeast  Level Estimated
05:38PM 47.3498 16.4816 120° Southeast  Level Estimated
05:39PM 47.2920 16.6288 120° Southeast  Level Estimated
05:40PM 47.2341 16.7757 120° Southeast  Level Estimated
05:41PM 47.1760 16.9223 120° Southeast  Level Estimated
05:42PM 47.1177 17.0685 120° Southeast  Level Estimated
05:43PM 47.0592 17.2145 120° Southeast  Level Estimated
05:44PM 47.0005 17.3601 121° Southeast  Level Estimated
05:45PM 46.9417 17.5054 121° Southeast  Level Estimated
05:46PM 46.8826 17.6504 121° Southeast  Level Estimated
05:47PM 46.8234 17.7950 121° Southeast  Level Estimated
05:48PM 46.7640 17.9394 121° Southeast  Level Estimated
05:49PM 46.7044 18.0834 121° Southeast  Level Estimated
05:50PM 46.6446 18.2271 121° Southeast  Level Estimated
05:51PM 46.5847 18.3704 121° Southeast  Level Estimated
05:52PM 46.5245 18.5135 121° Southeast  Level Estimated
05:53PM 46.4642 18.6563 121° Southeast  Level Estimated
05:54PM 46.4037 18.7987 122° Southeast  Level Estimated
05:55PM 46.3431 18.9408 122° Southeast  Level Estimated
05:56PM 46.2822 19.0826 122° Southeast  Level Estimated
05:57PM 46.2212 19.2241 122° Southeast  Level Estimated
05:58PM 46.1600 19.3653 122° Southeast  Level Estimated
05:59PM 46.0987 19.5061 122° Southeast  Level Estimated
06:00PM 46.0371 19.6467 122° Southeast  Level Estimated
06:01PM 45.9754 19.7869 122° Southeast  Level Estimated
06:02PM 45.9136 19.9268 122° Southeast  Level Estimated
06:03PM 45.8515 20.0664 123° Southeast  Level Estimated
06:04PM 45.7893 20.2057 123° Southeast  Level Estimated
06:05PM 45.7269 20.3447 123° Southeast  Level Estimated
06:06PM 45.6644 20.4834 123° Southeast  Level Estimated
06:07PM 45.6016 20.6217 123° Southeast  Level Estimated
06:08PM 45.5387 20.7598 123° Southeast  Level Estimated
06:09PM 45.4757 20.8975 123° Southeast  Level Estimated
06:10PM 45.4125 21.0350 123° Southeast  Level Estimated
06:11PM 45.3491 21.1721 123° Southeast  Level Estimated
06:12PM 45.2855 21.3089 123° Southeast  Level Estimated
06:13PM 45.2218 21.4454 123° Southeast  Level Estimated
06:14PM 45.1580 21.5817 124° Southeast  Level Estimated
06:15PM 45.0939 21.7176 124° Southeast  Level Estimated
06:16PM 45.0298 21.8532 124° Southeast  Level Estimated
06:17PM 44.9654 21.9884 124° Southeast  Level Estimated
06:18PM 44.9009 22.1234 124° Southeast  Level Estimated
06:19PM 44.8362 22.2581 124° Southeast  Level Estimated
06:20PM 44.7714 22.3925 124° Southeast  Level Estimated
06:21PM 44.7064 22.5266 124° Southeast  Level Estimated
06:22PM 44.6413 22.6604 124° Southeast  Level Estimated
06:23PM 44.5760 22.7939 124° Southeast  Level Estimated
06:24PM 44.5105 22.9270 125° Southeast  Level Estimated
06:25PM 44.4449 23.0599 125° Southeast  Level Estimated
06:26PM 44.3791 23.1925 125° Southeast  Level Estimated
06:27PM 44.3132 23.3248 125° Southeast  Level Estimated
06:28PM 44.2472 23.4568 125° Southeast  Level Estimated
06:29PM 44.1809 23.5885 125° Southeast  Level Estimated
06:30PM 44.1146 23.7199 125° Southeast  Level Estimated
06:31PM 44.0480 23.8510 125° Southeast  Level Estimated
06:32PM 43.9814 23.9818 125° Southeast  Level Estimated
06:33PM 43.9146 24.1123 125° Southeast  Level Estimated
06:34PM 43.8476 24.2425 125° Southeast  Level Estimated
06:35PM 43.7805 24.3724 126° Southeast  Level Estimated
06:36PM 43.7132 24.5021 126° Southeast  Level Estimated
06:37PM 43.6458 24.6314 126° Southeast  Level Estimated
06:38PM 43.5783 24.7605 126° Southeast  Level Estimated
06:39PM 43.5106 24.8893 126° Southeast  Level Estimated
06:40PM 43.4427 25.0177 126° Southeast  Level Estimated
06:41PM 43.3747 25.1459 126° Southeast  Level Estimated
06:42PM 43.3066 25.2738 126° Southeast  Level Estimated
06:43PM 43.2383 25.4015 126° Southeast  Level Estimated
06:44PM 43.1699 25.5288 126° Southeast  Level Estimated
06:45PM 43.1014 25.6558 126° Southeast  Level Estimated
06:46PM 43.0327 25.7826 127° Southeast  Level Estimated
06:47PM 42.9638 25.9091 127° Southeast  Level Estimated
06:48PM 42.8949 26.0353 127° Southeast  Level Estimated
06:49PM 42.8258 26.1612 127° Southeast  Level Estimated
06:50PM 42.7565 26.2868 127° Southeast  Level Estimated
06:51PM 42.6871 26.4121 127° Southeast  Level Estimated
06:52PM 42.6176 26.5372 127° Southeast  Level Estimated
06:53PM 42.5479 26.6620 127° Southeast  Level Estimated
06:54PM 42.4781 26.7865 127° Southeast  Level Estimated
06:55PM 42.4082 26.9107 127° Southeast  Level Estimated
06:56PM 42.3382 27.0347 127° Southeast  Level Estimated
06:57PM 42.2680 27.1584 127° Southeast  Level Estimated
06:58PM 42.1976 27.2818 128° Southeast  Level Estimated
06:59PM 42.1272 27.4049 128° Southeast  Level Estimated
07:00PM 42.0566 27.5278 128° Southeast  Level Estimated
07:01PM 41.9859 27.6504 128° Southeast  Level Estimated
07:02PM 41.9150 27.7727 128° Southeast  Level Estimated
07:03PM 41.8440 27.8947 128° Southeast  Level Estimated
07:04PM 41.7729 28.0165 128° Southeast  Level Estimated
07:05PM 41.7017 28.1380 128° Southeast  Level Estimated
07:06PM 41.6303 28.2592 128° Southeast  Level Estimated
07:07PM 41.5588 28.3802 128° Southeast  Level Estimated
07:08PM 41.4872 28.5009 128° Southeast  Level Estimated
07:09PM 41.4155 28.6213 128° Southeast  Level Estimated
07:10PM 41.3436 28.7414 129° Southeast  Level Estimated
07:11PM 41.2716 28.8613 129° Southeast  Level Estimated
07:12PM 41.1995 28.9810 129° Southeast  Level Estimated
07:13PM 41.1273 29.1003 129° Southeast  Level Estimated
07:14PM 41.0549 29.2195 129° Southeast  Level Estimated
07:15PM 40.9824 29.3383 129° Southeast  Level Estimated
07:16PM 40.9098 29.4569 129° Southeast  Level Estimated
07:17PM 40.8371 29.5752 129° Southeast  Level Estimated
07:18PM 40.7642 29.6933 129° Southeast  Level Estimated
07:19PM 40.6912 29.8111 129° Southeast  Level Estimated
07:20PM 40.6182 29.9286 129° Southeast  Level Estimated
07:21PM 40.5449 30.0459 129° Southeast  Level Estimated
07:22PM 40.4716 30.1629 129° Southeast  Level Estimated
07:23PM 40.3982 30.2797 130° Southeast  Level Estimated
07:24PM 40.3246 30.3962 130° Southeast  Level Estimated
07:25PM 40.2509 30.5125 130° Southeast  Level Estimated
07:26PM 40.1771 30.6285 130° Southeast  Level Estimated
07:27PM 40.1032 30.7443 130° Southeast  Level Estimated
07:28PM 40.0292 30.8598 130° Southeast  Level Estimated
07:29PM 39.9551 30.9750 130° Southeast  Level Estimated
07:30PM 39.8808 31.0900 130° Southeast  Level Estimated
07:31PM 39.8064 31.2048 130° Southeast  Level Estimated
07:32PM 39.7319 31.3193 130° Southeast  Level Estimated
07:33PM 39.6574 31.4336 130° Southeast  Level Estimated
07:34PM 39.5827 31.5476 130° Southeast  Level Estimated
07:35PM 39.5078 31.6614 130° Southeast  Level Estimated
07:36PM 39.4329 31.7749 130° Southeast  Level Estimated
07:37PM 39.3579 31.8882 131° Southeast  Level Estimated
07:38PM 39.2827 32.0012 131° Southeast  Level Estimated
07:39PM 39.2075 32.1140 131° Southeast  Level Estimated
07:40PM 39.1321 32.2266 131° Southeast  Level Estimated
07:41PM 39.0566 32.3389 131° Southeast  Level Estimated
07:42PM 38.9811 32.4510 131° Southeast  Level Estimated
07:43PM 38.9054 32.5628 131° Southeast  Level Estimated
07:44PM 38.8296 32.6744 131° Southeast  Level Estimated
07:45PM 38.7537 32.7858 131° Southeast  Level Estimated
07:46PM 38.6777 32.8969 131° Southeast  Level Estimated
07:47PM 38.6016 33.0078 131° Southeast  Level Estimated
07:48PM 38.5254 33.1185 131° Southeast  Level Estimated
07:49PM 38.4490 33.2289 131° Southeast  Level Estimated
07:50PM 38.3726 33.3391 131° Southeast  Level Estimated
07:51PM 38.2961 33.4490 132° Southeast  Level Estimated
07:52PM 38.2195 33.5587 132° Southeast  Level Estimated
07:53PM 38.1427 33.6682 132° Southeast  Level Estimated
07:54PM 38.0659 33.7775 132° Southeast  Level Estimated
07:55PM 37.9890 33.8865 132° Southeast  Level Estimated
07:56PM 37.9119 33.9953 132° Southeast  Level Estimated
07:57PM 37.8348 34.1039 132° Southeast  Level Estimated
07:58PM 37.7576 34.2122 132° Southeast  Level Estimated
07:59PM 37.6803 34.3204 132° Southeast  Level Estimated
08:00PM 37.6028 34.4283 132° Southeast  Level Estimated
08:01PM 37.5253 34.5359 132° Southeast  Level Estimated
08:02PM 37.4477 34.6434 132° Southeast  Level Estimated
08:03PM 37.3700 34.7506 132° Southeast  Level Estimated
08:04PM 37.2921 34.8576 132° Southeast  Level Estimated
08:05PM 37.2142 34.9644 132° Southeast  Level Estimated
08:06PM 37.1362 35.0709 133° Southeast  Level Estimated
08:07PM 37.0581 35.1773 133° Southeast  Level Estimated
08:08PM 36.9822 35.2804 133° Southeast  Level Estimated
08:09PM 36.9822 35.2804 202° Southwest  Level Estimated
08:10PM 36.9822 35.2804 202° Southwest  Level Estimated
08:11PM 36.9822 35.2804 202° Southwest  Level Estimated
08:12PM 36.9822 35.2804 202° Southwest  Level Estimated
08:13PM 36.9822 35.2804 202° Southwest  Level Estimated
08:14PM 36.9822 35.2804 202° Southwest  Level Estimated
08:15PM 36.9822 35.2804 202° Southwest  Level Estimated
08:16PM 36.9822 35.2804 202° Southwest  Level Estimated
08:17PM 36.9822 35.2804 202° Southwest  Level Estimated
08:18PM 36.9822 35.2804 202° Southwest  Level Estimated
08:19PM 36.9822 35.2804 202° Southwest  Level Estimated
08:20PM 36.9822 35.2804 202° Southwest  Level Estimated
08:21PM 36.9822 35.2804 202° Southwest  Level Estimated
08:22PM 36.9822 35.2804 202° Southwest  Level Estimated
08:23PM 36.9822 35.2804 202° Southwest  Level Estimated
08:24PM 36.9822 35.2804 202° Southwest  Level Estimated